sensor_id;sensor_type;location;lat;lon;timestamp;pressure;altitude;pressure_sealevel;temperature;humidity
63568;BME280;49715;42.386;20.434;2023-01-29T00:01:58;97687.44;;;3.87;59.92
63568;BME280;49715;42.386;20.434;2023-01-29T00:04:25;97684.81;;;3.87;59.77
63568;BME280;49715;42.386;20.434;2023-01-29T00:06:51;97668.13;;;3.77;59.74
63568;BME280;49715;42.386;20.434;2023-01-29T00:09:18;97686.91;;;3.82;59.94
63568;BME280;49715;42.386;20.434;2023-01-29T00:11:44;97684.38;;;3.80;59.84
63568;BME280;49715;42.386;20.434;2023-01-29T00:14:11;97678.03;;;3.72;60.12
63568;BME280;49715;42.386;20.434;2023-01-29T00:16:37;97695.22;;;3.74;60.20
63568;BME280;49715;42.386;20.434;2023-01-29T00:19:04;97687.63;;;3.71;60.39
63568;BME280;49715;42.386;20.434;2023-01-29T00:21:30;97689.94;;;3.76;60.16
63568;BME280;49715;42.386;20.434;2023-01-29T00:23:57;97689.59;;;3.80;60.16
63568;BME280;49715;42.386;20.434;2023-01-29T00:26:24;97707.53;;;3.85;60.17
63568;BME280;49715;42.386;20.434;2023-01-29T00:28:51;97699.63;;;3.86;60.18
63568;BME280;49715;42.386;20.434;2023-01-29T00:31:20;97686.97;;;3.80;60.17
63568;BME280;49715;42.386;20.434;2023-01-29T00:33:48;97692.19;;;3.80;60.52
63568;BME280;49715;42.386;20.434;2023-01-29T00:36:17;97701.41;;;3.86;60.47
63568;BME280;49715;42.386;20.434;2023-01-29T00:38:44;97690.53;;;3.79;60.33
63568;BME280;49715;42.386;20.434;2023-01-29T00:41:20;97689.81;;;3.77;60.53
63568;BME280;49715;42.386;20.434;2023-01-29T00:44:05;97706.81;;;3.83;60.47
63568;BME280;49715;42.386;20.434;2023-01-29T00:46:51;97709.00;;;3.89;60.67
63568;BME280;49715;42.386;20.434;2023-01-29T00:49:17;97710.59;;;3.92;60.54
63568;BME280;49715;42.386;20.434;2023-01-29T00:51:43;97713.19;;;3.92;60.31
63568;BME280;49715;42.386;20.434;2023-01-29T00:54:30;97705.56;;;3.88;60.45
63568;BME280;49715;42.386;20.434;2023-01-29T00:56:56;97706.41;;;3.89;60.61
63568;BME280;49715;42.386;20.434;2023-01-29T00:59:23;97704.25;;;3.96;60.54
63568;BME280;49715;42.386;20.434;2023-01-29T01:01:49;97705.78;;;3.98;60.55
63568;BME280;49715;42.386;20.434;2023-01-29T01:04:34;97710.81;;;4.01;60.47
63568;BME280;49715;42.386;20.434;2023-01-29T01:07:05;97705.69;;;4.00;60.64
63568;BME280;49715;42.386;20.434;2023-01-29T01:09:35;97709.75;;;4.04;60.61
63568;BME280;49715;42.386;20.434;2023-01-29T01:12:21;97703.06;;;4.00;60.65
63568;BME280;49715;42.386;20.434;2023-01-29T01:14:48;97706.31;;;4.03;60.73
63568;BME280;49715;42.386;20.434;2023-01-29T01:17:15;97712.16;;;4.07;60.65
63568;BME280;49715;42.386;20.434;2023-01-29T01:19:41;97709.56;;;4.07;60.39
63568;BME280;49715;42.386;20.434;2023-01-29T01:22:08;97707.78;;;4.07;60.57
63568;BME280;49715;42.386;20.434;2023-01-29T01:24:36;97703.59;;;4.05;60.67
63568;BME280;49715;42.386;20.434;2023-01-29T01:27:04;97707.97;;;4.04;60.69
63568;BME280;49715;42.386;20.434;2023-01-29T01:29:32;97707.66;;;4.09;60.61
63568;BME280;49715;42.386;20.434;2023-01-29T01:31:59;97717.38;;;4.07;60.57
63568;BME280;49715;42.386;20.434;2023-01-29T01:34:25;97721.13;;;4.03;60.71
63568;BME280;49715;42.386;20.434;2023-01-29T01:36:53;97722.38;;;3.97;60.73
63568;BME280;49715;42.386;20.434;2023-01-29T01:39:24;97727.06;;;3.92;60.84
63568;BME280;49715;42.386;20.434;2023-01-29T01:41:51;97719.03;;;3.82;60.89
63568;BME280;49715;42.386;20.434;2023-01-29T01:47:27;97728.00;;;3.91;60.80
63568;BME280;49715;42.386;20.434;2023-01-29T01:50:00;97731.47;;;3.92;60.99
63568;BME280;49715;42.386;20.434;2023-01-29T01:52:30;97717.88;;;3.86;61.25
63568;BME280;49715;42.386;20.434;2023-01-29T01:54:58;97719.25;;;3.92;61.18
63568;BME280;49715;42.386;20.434;2023-01-29T01:57:27;97723.81;;;3.88;61.16
63568;BME280;49715;42.386;20.434;2023-01-29T02:00:07;97717.47;;;3.93;61.12
63568;BME280;49715;42.386;20.434;2023-01-29T02:02:43;97722.38;;;3.97;61.31
63568;BME280;49715;42.386;20.434;2023-01-29T02:05:33;97719.03;;;3.95;61.08
63568;BME280;49715;42.386;20.434;2023-01-29T02:08:26;97712.78;;;3.98;61.07
63568;BME280;49715;42.386;20.434;2023-01-29T02:11:14;97731.56;;;4.03;61.04
63568;BME280;49715;42.386;20.434;2023-01-29T02:13:41;97719.78;;;3.97;61.20
63568;BME280;49715;42.386;20.434;2023-01-29T02:16:07;97725.94;;;3.96;61.17
63568;BME280;49715;42.386;20.434;2023-01-29T02:18:34;97719.97;;;3.94;61.04
63568;BME280;49715;42.386;20.434;2023-01-29T02:27:12;97725.72;;;3.86;61.21
63568;BME280;49715;42.386;20.434;2023-01-29T02:32:37;97726.13;;;3.93;61.16
63568;BME280;49715;42.386;20.434;2023-01-29T02:35:16;97724.47;;;3.92;61.41
63568;BME280;49715;42.386;20.434;2023-01-29T02:38:22;97729.78;;;3.91;61.34
63568;BME280;49715;42.386;20.434;2023-01-29T02:41:07;97722.47;;;3.83;61.40
63568;BME280;49715;42.386;20.434;2023-01-29T02:46:15;97723.00;;;3.88;61.67
63568;BME280;49715;42.386;20.434;2023-01-29T02:49:01;97719.84;;;3.83;61.54
63568;BME280;49715;42.386;20.434;2023-01-29T02:51:38;97726.13;;;3.93;61.61
63568;BME280;49715;42.386;20.434;2023-01-29T02:56:59;97733.34;;;4.02;61.26
63568;BME280;49715;42.386;20.434;2023-01-29T02:59:34;97733.97;;;4.06;61.14
63568;BME280;49715;42.386;20.434;2023-01-29T03:02:10;97726.16;;;4.06;60.99
63568;BME280;49715;42.386;20.434;2023-01-29T03:04:44;97731.38;;;4.06;60.91
63568;BME280;49715;42.386;20.434;2023-01-29T03:07:18;97732.41;;;4.03;60.71
63568;BME280;49715;42.386;20.434;2023-01-29T03:12:53;97731.56;;;4.03;60.84
63568;BME280;49715;42.386;20.434;2023-01-29T03:15:27;97743.88;;;4.01;60.89
63568;BME280;49715;42.386;20.434;2023-01-29T03:18:17;97742.31;;;3.98;60.76
63568;BME280;49715;42.386;20.434;2023-01-29T03:20:52;97729.22;;;3.85;60.73
63568;BME280;49715;42.386;20.434;2023-01-29T03:23:24;97746.94;;;3.80;60.95
63568;BME280;49715;42.386;20.434;2023-01-29T03:26:14;97744.88;;;3.73;60.88
63568;BME280;49715;42.386;20.434;2023-01-29T03:29:02;97746.00;;;3.69;61.06
63568;BME280;49715;42.386;20.434;2023-01-29T03:31:52;97746.00;;;3.69;61.45
63568;BME280;49715;42.386;20.434;2023-01-29T03:34:45;97740.88;;;3.67;60.97
63568;BME280;49715;42.386;20.434;2023-01-29T03:37:28;97737.81;;;3.60;60.97
63568;BME280;49715;42.386;20.434;2023-01-29T03:40:00;97747.56;;;3.71;60.99
63568;BME280;49715;42.386;20.434;2023-01-29T03:45:36;97750.19;;;3.71;61.12
63568;BME280;49715;42.386;20.434;2023-01-29T03:48:15;97747.78;;;3.68;61.14
63568;BME280;49715;42.386;20.434;2023-01-29T03:51:06;97741.63;;;3.69;61.30
63568;BME280;49715;42.386;20.434;2023-01-29T03:53:56;97747.47;;;3.73;61.10
63568;BME280;49715;42.386;20.434;2023-01-29T04:02:12;97744.97;;;3.71;61.31
63568;BME280;49715;42.386;20.434;2023-01-29T04:04:45;97745.06;;;3.70;61.43
63568;BME280;49715;42.386;20.434;2023-01-29T04:07:16;97734.91;;;3.65;61.36
63568;BME280;49715;42.386;20.434;2023-01-29T04:09:50;97734.53;;;3.71;61.33
63568;BME280;49715;42.386;20.434;2023-01-29T04:12:35;97746.53;;;3.74;61.42
63568;BME280;49715;42.386;20.434;2023-01-29T04:15:04;97739.25;;;3.79;61.30
63568;BME280;49715;42.386;20.434;2023-01-29T04:17:38;97746.88;;;3.82;61.38
63568;BME280;49715;42.386;20.434;2023-01-29T04:20:15;97738.28;;;3.80;61.26
63568;BME280;49715;42.386;20.434;2023-01-29T04:22:43;97749.88;;;3.76;61.50
63568;BME280;49715;42.386;20.434;2023-01-29T04:25:14;97750.50;;;3.79;61.31
63568;BME280;49715;42.386;20.434;2023-01-29T04:27:58;97748.84;;;3.78;61.37
63568;BME280;49715;42.386;20.434;2023-01-29T04:38:53;97747.56;;;3.71;61.58
63568;BME280;49715;42.386;20.434;2023-01-29T04:41:41;97750.06;;;3.73;61.38
63568;BME280;49715;42.386;20.434;2023-01-29T04:44:17;97756.75;;;3.77;61.53
63568;BME280;49715;42.386;20.434;2023-01-29T04:46:51;97756.13;;;3.73;61.64
63568;BME280;49715;42.386;20.434;2023-01-29T04:49:41;97764.28;;;3.81;61.78
63568;BME280;49715;42.386;20.434;2023-01-29T04:55:20;97761.47;;;3.84;61.30
63568;BME280;49715;42.386;20.434;2023-01-29T05:00:30;97760.53;;;3.85;61.42
63568;BME280;49715;42.386;20.434;2023-01-29T05:02:59;97752.91;;;3.82;61.38
63568;BME280;49715;42.386;20.434;2023-01-29T05:05:27;97759.78;;;3.83;61.54
63568;BME280;49715;42.386;20.434;2023-01-29T05:07:54;97767.09;;;3.78;61.89
63568;BME280;49715;42.386;20.434;2023-01-29T05:10:25;97761.69;;;3.81;61.74
63568;BME280;49715;42.386;20.434;2023-01-29T05:12:53;97752.16;;;3.68;61.82
63568;BME280;49715;42.386;20.434;2023-01-29T05:15:28;97761.69;;;3.81;61.57
63568;BME280;49715;42.386;20.434;2023-01-29T05:17:55;97760.31;;;3.76;61.58
63568;BME280;49715;42.386;20.434;2023-01-29T05:20:31;97764.28;;;3.81;61.53
63568;BME280;49715;42.386;20.434;2023-01-29T05:22:58;97762.81;;;3.77;61.91
63568;BME280;49715;42.386;20.434;2023-01-29T05:25:27;97770.63;;;3.77;61.82
63568;BME280;49715;42.386;20.434;2023-01-29T05:27:54;97764.28;;;3.81;61.99
63568;BME280;49715;42.386;20.434;2023-01-29T05:30:37;97774.50;;;3.84;61.84
63568;BME280;49715;42.386;20.434;2023-01-29T05:33:20;97771.34;;;3.79;61.82
63568;BME280;49715;42.386;20.434;2023-01-29T05:35:47;97768.75;;;3.79;62.00
63568;BME280;49715;42.386;20.434;2023-01-29T05:38:15;97768.34;;;3.85;61.94
63568;BME280;49715;42.386;20.434;2023-01-29T05:40:42;97778.78;;;3.85;61.84
63568;BME280;49715;42.386;20.434;2023-01-29T05:43:14;97777.03;;;3.86;61.88
63568;BME280;49715;42.386;20.434;2023-01-29T05:45:42;97778.88;;;3.84;62.02
63568;BME280;49715;42.386;20.434;2023-01-29T05:48:08;97785.75;;;3.85;61.90
63568;BME280;49715;42.386;20.434;2023-01-29T05:50:35;97775.56;;;3.82;62.05
63568;BME280;49715;42.386;20.434;2023-01-29T05:53:01;97781.50;;;3.84;62.03
63568;BME280;49715;42.386;20.434;2023-01-29T05:55:28;97786.59;;;3.85;62.23
63568;BME280;49715;42.386;20.434;2023-01-29T05:57:57;97782.72;;;3.78;62.22
63568;BME280;49715;42.386;20.434;2023-01-29T06:00:24;97788.66;;;3.80;62.41
63568;BME280;49715;42.386;20.434;2023-01-29T06:02:50;97792.44;;;3.76;62.61
63568;BME280;49715;42.386;20.434;2023-01-29T06:05:17;97790.75;;;3.75;62.64
63568;BME280;49715;42.386;20.434;2023-01-29T06:07:43;97790.19;;;3.70;62.44
63568;BME280;49715;42.386;20.434;2023-01-29T06:10:12;97800.97;;;3.78;62.55
63568;BME280;49715;42.386;20.434;2023-01-29T06:12:39;97804.41;;;3.79;62.46
63568;BME280;49715;42.386;20.434;2023-01-29T06:15:06;97808.06;;;3.76;62.51
63568;BME280;49715;42.386;20.434;2023-01-29T06:17:33;97816.44;;;3.81;62.58
63568;BME280;49715;42.386;20.434;2023-01-29T06:19:59;97821.72;;;3.80;62.71
63568;BME280;49715;42.386;20.434;2023-01-29T06:22:26;97826.03;;;3.81;62.28
63568;BME280;49715;42.386;20.434;2023-01-29T06:24:52;97821.44;;;3.84;62.50
63568;BME280;49715;42.386;20.434;2023-01-29T06:27:20;97809.63;;;3.79;62.36
63568;BME280;49715;42.386;20.434;2023-01-29T06:29:47;97836.06;;;3.87;62.47
63568;BME280;49715;42.386;20.434;2023-01-29T06:32:13;97830.19;;;3.83;62.49
63568;BME280;49715;42.386;20.434;2023-01-29T06:34:39;97822.28;;;3.85;62.57
63568;BME280;49715;42.386;20.434;2023-01-29T06:37:06;97826.66;;;3.84;62.63
63568;BME280;49715;42.386;20.434;2023-01-29T06:39:33;97823.09;;;3.85;62.41
63568;BME280;49715;42.386;20.434;2023-01-29T06:41:59;97832.69;;;3.85;62.49
63568;BME280;49715;42.386;20.434;2023-01-29T06:44:26;97841.34;;;3.85;62.40
63568;BME280;49715;42.386;20.434;2023-01-29T06:46:52;97836.91;;;3.87;62.48
63568;BME280;49715;42.386;20.434;2023-01-29T06:49:19;97842.75;;;3.91;62.42
63568;BME280;49715;42.386;20.434;2023-01-29T06:51:45;97847.97;;;3.91;62.49
63568;BME280;49715;42.386;20.434;2023-01-29T06:54:12;97847.88;;;3.93;62.48
63568;BME280;49715;42.386;20.434;2023-01-29T06:56:38;97841.72;;;3.94;62.36
63568;BME280;49715;42.386;20.434;2023-01-29T06:59:04;97845.16;;;3.94;62.34
63568;BME280;49715;42.386;20.434;2023-01-29T07:01:31;97849.78;;;4.03;62.30
63568;BME280;49715;42.386;20.434;2023-01-29T07:03:57;97856.34;;;4.09;62.50
63568;BME280;49715;42.386;20.434;2023-01-29T07:06:27;97841.84;;;4.05;62.19
63568;BME280;49715;42.386;20.434;2023-01-29T07:08:55;97853.03;;;4.20;62.30
63568;BME280;49715;42.386;20.434;2023-01-29T07:11:22;97843.13;;;4.12;62.30
63568;BME280;49715;42.386;20.434;2023-01-29T07:13:48;97859.31;;;4.17;62.21
63568;BME280;49715;42.386;20.434;2023-01-29T07:16:14;97870.28;;;4.22;62.21
63568;BME280;49715;42.386;20.434;2023-01-29T07:18:41;97872.47;;;4.28;62.05
63568;BME280;49715;42.386;20.434;2023-01-29T07:21:07;97858.72;;;4.26;61.81
63568;BME280;49715;42.386;20.434;2023-01-29T07:23:34;97871.16;;;4.35;62.07
63568;BME280;49715;42.386;20.434;2023-01-29T07:26:02;97880.25;;;4.43;61.97
63568;BME280;49715;42.386;20.434;2023-01-29T07:28:29;97875.03;;;4.43;61.94
63568;BME280;49715;42.386;20.434;2023-01-29T07:30:58;97876.31;;;4.50;61.56
63568;BME280;49715;42.386;20.434;2023-01-29T07:33:25;97880.16;;;4.57;61.65
63568;BME280;49715;42.386;20.434;2023-01-29T07:35:52;97883.72;;;4.56;61.52
63568;BME280;49715;42.386;20.434;2023-01-29T07:38:19;97882.38;;;4.63;61.46
63568;BME280;49715;42.386;20.434;2023-01-29T07:40:45;97877.38;;;4.60;61.38
63568;BME280;49715;42.386;20.434;2023-01-29T07:43:12;97882.66;;;4.58;61.43
63568;BME280;49715;42.386;20.434;2023-01-29T07:45:39;97881.22;;;4.54;61.57
63568;BME280;49715;42.386;20.434;2023-01-29T07:48:08;97883.53;;;4.59;61.59
63568;BME280;49715;42.386;20.434;2023-01-29T07:50:35;97872.03;;;4.61;61.53
63568;BME280;49715;42.386;20.434;2023-01-29T07:53:01;97884.34;;;4.72;61.40
63568;BME280;49715;42.386;20.434;2023-01-29T07:55:28;97880.91;;;4.72;61.58
63568;BME280;49715;42.386;20.434;2023-01-29T07:57:56;97884.16;;;4.75;61.55
63568;BME280;49715;42.386;20.434;2023-01-29T08:00:22;97890.75;;;4.81;61.53
63568;BME280;49715;42.386;20.434;2023-01-29T08:02:49;97888.25;;;4.79;61.27
63568;BME280;49715;42.386;20.434;2023-01-29T08:05:15;97883.03;;;4.79;61.40
63568;BME280;49715;42.386;20.434;2023-01-29T08:07:42;97892.94;;;4.87;61.14
63568;BME280;49715;42.386;20.434;2023-01-29T08:10:09;97896.81;;;4.94;60.95
63568;BME280;49715;42.386;20.434;2023-01-29T08:12:36;97897.88;;;5.04;60.76
63568;BME280;49715;42.386;20.434;2023-01-29T08:15:02;97895.97;;;5.06;60.74
63568;BME280;49715;42.386;20.434;2023-01-29T08:17:29;97902.03;;;5.20;60.72
63568;BME280;49715;42.386;20.434;2023-01-29T08:19:55;97903.38;;;5.25;60.40
63568;BME280;49715;42.386;20.434;2023-01-29T08:22:23;97903.28;;;5.27;59.20
63568;BME280;49715;42.386;20.434;2023-01-29T08:24:49;97904.22;;;5.38;60.19
63568;BME280;49715;42.386;20.434;2023-01-29T08:27:15;97904.75;;;5.43;60.15
63568;BME280;49715;42.386;20.434;2023-01-29T08:29:42;97900.22;;;5.46;59.95
63568;BME280;49715;42.386;20.434;2023-01-29T08:32:09;97906.47;;;5.56;59.74
63568;BME280;49715;42.386;20.434;2023-01-29T08:34:36;97901.75;;;5.61;59.56
63568;BME280;49715;42.386;20.434;2023-01-29T08:37:02;97912.72;;;5.66;59.46
63568;BME280;49715;42.386;20.434;2023-01-29T08:39:29;97897.03;;;5.66;59.36
63568;BME280;49715;42.386;20.434;2023-01-29T08:41:55;97913.22;;;5.84;59.07
63568;BME280;49715;42.386;20.434;2023-01-29T08:44:22;97910.94;;;5.92;58.90
63568;BME280;49715;42.386;20.434;2023-01-29T08:46:49;97918.22;;;6.00;58.73
63568;BME280;49715;42.386;20.434;2023-01-29T08:49:15;97914.22;;;6.07;58.70
63568;BME280;49715;42.386;20.434;2023-01-29T08:51:41;97915.19;;;6.06;58.55
63568;BME280;49715;42.386;20.434;2023-01-29T08:54:08;97910.53;;;6.09;58.54
63568;BME280;49715;42.386;20.434;2023-01-29T08:56:34;97920.47;;;6.17;58.37
63568;BME280;49715;42.386;20.434;2023-01-29T08:59:01;97920.00;;;6.23;58.21
63568;BME280;49715;42.386;20.434;2023-01-29T09:01:27;97925.53;;;6.31;58.20
63568;BME280;49715;42.386;20.434;2023-01-29T09:03:54;97923.97;;;6.29;58.28
63568;BME280;49715;42.386;20.434;2023-01-29T09:06:20;97924.59;;;6.32;58.17
63568;BME280;49715;42.386;20.434;2023-01-29T09:08:47;97926.69;;;6.27;58.08
63568;BME280;49715;42.386;20.434;2023-01-29T09:11:14;97930.91;;;6.30;57.94
63568;BME280;49715;42.386;20.434;2023-01-29T09:13:41;97932.81;;;6.39;58.13
63568;BME280;49715;42.386;20.434;2023-01-29T09:16:08;97928.66;;;6.36;57.75
63568;BME280;49715;42.386;20.434;2023-01-29T09:18:34;97920.75;;;6.25;57.63
63568;BME280;49715;42.386;20.434;2023-01-29T09:21:01;97932.44;;;6.32;57.39
63568;BME280;49715;42.386;20.434;2023-01-29T09:23:28;97927.19;;;6.32;57.62
63568;BME280;49715;42.386;20.434;2023-01-29T09:25:55;97926.03;;;6.36;57.56
63568;BME280;49715;42.386;20.434;2023-01-29T09:28:22;97922.25;;;6.40;57.50
63568;BME280;49715;42.386;20.434;2023-01-29T09:30:49;97917.72;;;6.42;57.43
63568;BME280;49715;42.386;20.434;2023-01-29T09:33:15;97909.53;;;6.47;57.35
63568;BME280;49715;42.386;20.434;2023-01-29T09:35:42;97924.09;;;6.62;57.23
63568;BME280;49715;42.386;20.434;2023-01-29T09:38:11;97908.50;;;6.61;56.57
63568;BME280;49715;42.386;20.434;2023-01-29T09:43:21;97908.53;;;6.72;56.69
63568;BME280;49715;42.386;20.434;2023-01-29T09:46:06;97909.88;;;6.78;56.57
63568;BME280;49715;42.386;20.434;2023-01-29T09:48:39;97909.88;;;6.78;56.47
63568;BME280;49715;42.386;20.434;2023-01-29T09:51:13;97902.84;;;6.78;56.31
63568;BME280;49715;42.386;20.434;2023-01-29T09:53:49;97900.47;;;6.86;56.06
63568;BME280;49715;42.386;20.434;2023-01-29T09:56:21;97899.78;;;6.95;56.01
63568;BME280;49715;42.386;20.434;2023-01-29T09:58:57;97901.09;;;7.01;55.81
63568;BME280;49715;42.386;20.434;2023-01-29T10:01:35;97879.66;;;6.96;55.67
63568;BME280;49715;42.386;20.434;2023-01-29T10:04:37;97897.53;;;7.02;54.83
63568;BME280;49715;42.386;20.434;2023-01-29T10:10:18;97881.66;;;6.92;55.24
63568;BME280;49715;42.386;20.434;2023-01-29T10:13:00;97895.16;;;6.99;55.16
63568;BME280;49715;42.386;20.434;2023-01-29T10:18:32;97886.94;;;7.04;54.41
63568;BME280;49715;42.386;20.434;2023-01-29T10:24:32;97889.91;;;6.99;53.94
63568;BME280;49715;42.386;20.434;2023-01-29T10:26:59;97882.88;;;7.00;55.08
63568;BME280;49715;42.386;20.434;2023-01-29T10:29:27;97890.63;;;7.01;55.05
63568;BME280;49715;42.386;20.434;2023-01-29T10:32:00;97887.16;;;7.01;54.71
63568;BME280;49715;42.386;20.434;2023-01-29T10:34:39;97886.81;;;6.94;54.41
63568;BME280;49715;42.386;20.434;2023-01-29T10:37:31;97889.03;;;6.87;54.08
63568;BME280;49715;42.386;20.434;2023-01-29T10:40:01;97885.25;;;6.91;54.70
63568;BME280;49715;42.386;20.434;2023-01-29T10:42:48;97881.19;;;6.87;53.98
63568;BME280;49715;42.386;20.434;2023-01-29T10:45:22;97882.28;;;6.96;54.58
63568;BME280;49715;42.386;20.434;2023-01-29T10:54:04;97869.75;;;6.77;53.86
63568;BME280;49715;42.386;20.434;2023-01-29T10:57:01;97874.41;;;6.74;53.97
63568;BME280;49715;42.386;20.434;2023-01-29T11:02:19;97868.53;;;6.59;54.37
63568;BME280;49715;42.386;20.434;2023-01-29T11:04:47;97867.09;;;6.55;54.51
63568;BME280;49715;42.386;20.434;2023-01-29T11:07:17;97857.81;;;6.62;54.74
63568;BME280;49715;42.386;20.434;2023-01-29T11:10:09;97857.44;;;6.66;54.39
63568;BME280;49715;42.386;20.434;2023-01-29T11:12:39;97855.94;;;6.75;54.64
63568;BME280;49715;42.386;20.434;2023-01-29T11:15:23;97849.03;;;6.85;54.54
63568;BME280;49715;42.386;20.434;2023-01-29T11:18:21;97855.72;;;6.89;53.75
63568;BME280;49715;42.386;20.434;2023-01-29T11:21:00;97833.53;;;6.82;54.07
63568;BME280;49715;42.386;20.434;2023-01-29T11:23:31;97839.16;;;6.89;54.09
63568;BME280;49715;42.386;20.434;2023-01-29T11:25:59;97819.38;;;6.85;54.17
63568;BME280;49715;42.386;20.434;2023-01-29T11:28:39;97834.28;;;6.95;54.01
63568;BME280;49715;42.386;20.434;2023-01-29T11:33:50;97820.94;;;6.99;53.82
63568;BME280;49715;42.386;20.434;2023-01-29T11:36:20;97821.66;;;7.01;53.97
63568;BME280;49715;42.386;20.434;2023-01-29T11:39:09;97809.63;;;6.98;53.51
63568;BME280;49715;42.386;20.434;2023-01-29T11:41:48;97814.25;;;7.06;53.75
63568;BME280;49715;42.386;20.434;2023-01-29T11:44:40;97819.50;;;7.06;53.09
63568;BME280;49715;42.386;20.434;2023-01-29T11:49:53;97804.13;;;7.12;53.56
63568;BME280;49715;42.386;20.434;2023-01-29T11:52:23;97810.72;;;7.18;53.52
63568;BME280;49715;42.386;20.434;2023-01-29T11:54:54;97807.59;;;7.13;53.30
63568;BME280;49715;42.386;20.434;2023-01-29T11:57:29;97803.06;;;7.15;53.22
63568;BME280;49715;42.386;20.434;2023-01-29T12:00:16;97812.00;;;7.12;53.36
63568;BME280;49715;42.386;20.434;2023-01-29T12:02:48;97801.41;;;7.14;53.64
63568;BME280;49715;42.386;20.434;2023-01-29T12:05:20;97794.59;;;7.11;53.46
63568;BME280;49715;42.386;20.434;2023-01-29T12:07:49;97797.69;;;7.16;53.49
63568;BME280;49715;42.386;20.434;2023-01-29T12:15:36;97797.25;;;7.00;53.15
63568;BME280;49715;42.386;20.434;2023-01-29T12:20:59;97777.59;;;6.83;53.03
63568;BME280;49715;42.386;20.434;2023-01-29T12:23:53;97785.81;;;6.79;52.36
63568;BME280;49715;42.386;20.434;2023-01-29T12:26:42;97782.44;;;6.77;52.84
63568;BME280;49715;42.386;20.434;2023-01-29T12:34:53;97767.31;;;6.47;52.96
63568;BME280;49715;42.386;20.434;2023-01-29T12:37:28;97772.06;;;6.41;53.38
63568;BME280;49715;42.386;20.434;2023-01-29T12:40:00;97756.69;;;6.37;53.27
63568;BME280;49715;42.386;20.434;2023-01-29T12:42:26;97771.44;;;6.38;52.33
63568;BME280;49715;42.386;20.434;2023-01-29T12:45:02;97778.47;;;6.49;53.79
63568;BME280;49715;42.386;20.434;2023-01-29T12:47:37;97774.81;;;6.51;53.07
63568;BME280;49715;42.386;20.434;2023-01-29T12:50:14;97766.72;;;6.54;53.00
63568;BME280;49715;42.386;20.434;2023-01-29T12:55:42;97765.78;;;6.55;53.14
63568;BME280;49715;42.386;20.434;2023-01-29T12:58:22;97776.59;;;6.62;52.55
63568;BME280;49715;42.386;20.434;2023-01-29T13:00:51;97780.66;;;6.66;52.89
63568;BME280;49715;42.386;20.434;2023-01-29T13:06:19;97772.31;;;6.61;52.65
63568;BME280;49715;42.386;20.434;2023-01-29T13:08:50;97746.09;;;6.38;52.44
63568;BME280;49715;42.386;20.434;2023-01-29T13:11:29;97781.84;;;6.62;52.63
63568;BME280;49715;42.386;20.434;2023-01-29T13:17:05;97781.84;;;6.62;52.55
63568;BME280;49715;42.386;20.434;2023-01-29T13:19:39;97781.72;;;6.63;52.56
63568;BME280;49715;42.386;20.434;2023-01-29T13:22:17;97773.03;;;6.63;52.43
63568;BME280;49715;42.386;20.434;2023-01-29T13:24:45;97778.75;;;6.68;52.61
63568;BME280;49715;42.386;20.434;2023-01-29T13:27:32;97788.66;;;6.64;52.01
63568;BME280;49715;42.386;20.434;2023-01-29T13:30:00;97797.56;;;6.62;52.11
63568;BME280;49715;42.386;20.434;2023-01-29T13:32:29;97793.75;;;6.55;52.33
63568;BME280;49715;42.386;20.434;2023-01-29T13:35:13;97794.94;;;6.51;51.95
63568;BME280;49715;42.386;20.434;2023-01-29T13:37:50;97786.47;;;6.47;52.34
63568;BME280;49715;42.386;20.434;2023-01-29T13:40:26;97794.69;;;6.54;52.18
63568;BME280;49715;42.386;20.434;2023-01-29T13:42:54;97798.38;;;6.51;52.37
63568;BME280;49715;42.386;20.434;2023-01-29T13:45:22;97801.81;;;6.40;50.76
63568;BME280;49715;42.386;20.434;2023-01-29T13:47:51;97795.63;;;6.41;52.45
63568;BME280;49715;42.386;20.434;2023-01-29T13:52:55;97802.31;;;6.45;52.66
63568;BME280;49715;42.386;20.434;2023-01-29T13:55:29;97800.50;;;6.46;52.50
63568;BME280;49715;42.386;20.434;2023-01-29T13:58:05;97793.97;;;6.40;52.52
63568;BME280;49715;42.386;20.434;2023-01-29T14:05:42;97811.31;;;6.30;52.63
63568;BME280;49715;42.386;20.434;2023-01-29T14:10:39;97815.94;;;6.27;52.90
63568;BME280;49715;42.386;20.434;2023-01-29T14:18:27;97804.78;;;6.01;53.20
63568;BME280;49715;42.386;20.434;2023-01-29T14:31:47;97832.69;;;5.76;53.40
63568;BME280;49715;42.386;20.434;2023-01-29T14:36:55;97847.59;;;5.63;53.90
63568;BME280;49715;42.386;20.434;2023-01-29T14:39:35;97839.56;;;5.53;53.98
63568;BME280;49715;42.386;20.434;2023-01-29T14:42:12;97844.41;;;5.47;54.22
63568;BME280;49715;42.386;20.434;2023-01-29T14:55:44;97845.56;;;5.30;54.49
63568;BME280;49715;42.386;20.434;2023-01-29T15:01:04;97841.59;;;5.37;54.73
63568;BME280;49715;42.386;20.434;2023-01-29T15:06:06;97863.53;;;5.47;54.50
63568;BME280;49715;42.386;20.434;2023-01-29T15:08:42;97859.84;;;5.50;54.42
63568;BME280;49715;42.386;20.434;2023-01-29T15:14:35;97858.91;;;5.51;54.22
63568;BME280;49715;42.386;20.434;2023-01-29T15:17:15;97863.53;;;5.47;54.42
63568;BME280;49715;42.386;20.434;2023-01-29T15:19:45;97860.81;;;5.49;54.29
63568;BME280;49715;42.386;20.434;2023-01-29T15:22:20;97857.69;;;5.43;54.42
63568;BME280;49715;42.386;20.434;2023-01-29T15:25:13;97861.44;;;5.39;54.44
63568;BME280;49715;42.386;20.434;2023-01-29T15:27:55;97859.47;;;5.43;54.30
63568;BME280;49715;42.386;20.434;2023-01-29T15:30:28;97852.78;;;5.39;54.11
63568;BME280;49715;42.386;20.434;2023-01-29T15:32:58;97856.34;;;5.38;54.30
63568;BME280;49715;42.386;20.434;2023-01-29T15:35:49;97860.00;;;5.35;54.11
63568;BME280;49715;42.386;20.434;2023-01-29T15:38:22;97848.38;;;5.27;54.25
63568;BME280;49715;42.386;20.434;2023-01-29T15:41:26;97860.53;;;5.28;54.19
63568;BME280;49715;42.386;20.434;2023-01-29T15:43:56;97861.88;;;5.33;54.51
63568;BME280;49715;42.386;20.434;2023-01-29T15:46:26;97868.91;;;5.33;54.51
63568;BME280;49715;42.386;20.434;2023-01-29T15:48:56;97865.44;;;5.32;54.46